createdAt,value
2018-04-28T00:00:28.061Z,64.31
2018-04-28T00:01:28.173Z,63.93
2018-04-28T00:02:28.181Z,64.50
2018-04-28T00:03:28.261Z,65.84
2018-04-28T00:04:28.313Z,65.55
2018-04-28T00:05:28.389Z,64.50
2018-04-28T00:06:28.477Z,64.88
2018-04-28T00:07:28.514Z,65.26
2018-04-28T00:08:28.562Z,65.36
2018-04-28T00:09:28.629Z,65.26
2018-04-28T00:10:28.693Z,65.07
2018-04-28T00:11:28.793Z,64.78
2018-04-28T00:12:28.834Z,65.55
2018-04-28T00:13:28.885Z,65.55
2018-04-28T00:14:28.949Z,66.22
2018-04-28T00:15:29.018Z,65.93
2018-04-28T00:16:29.390Z,65.55
2018-04-28T00:17:29.146Z,65.93
2018-04-28T00:18:29.206Z,65.26
2018-04-28T00:19:29.274Z,65.55
2018-04-28T00:20:29.338Z,65.84
2018-04-28T00:21:29.411Z,65.45
2018-04-28T00:22:29.470Z,65.07
2018-04-28T00:23:29.526Z,65.07
2018-04-28T00:24:29.610Z,65.07
2018-04-28T00:25:29.666Z,64.59
2018-04-28T00:26:29.734Z,64.98
2018-04-28T00:27:29.802Z,66.03
2018-04-28T00:28:29.858Z,65.64
2018-04-28T00:29:29.914Z,65.17
2018-04-28T00:30:29.978Z,65.55
2018-04-28T00:31:30.055Z,65.36
2018-04-28T00:32:30.119Z,65.26
2018-04-28T00:33:30.175Z,66.22
2018-04-28T00:34:30.238Z,66.50
2018-04-28T00:35:30.311Z,66.31
2018-04-28T00:36:30.375Z,66.60
2018-04-28T00:37:30.435Z,66.50
2018-04-28T00:38:30.499Z,66.85
2018-04-28T00:39:30.563Z,66.50
2018-04-28T00:40:30.627Z,66.89
2018-04-28T00:41:30.687Z,67.36
2018-04-28T00:42:30.762Z,67.75
2018-04-28T00:43:30.819Z,67.08
2018-04-28T00:44:30.879Z,67.65
2018-04-28T00:45:30.947Z,67.36
2018-04-28T00:46:31.019Z,67.36
2018-04-28T00:47:31.083Z,67.08
2018-04-28T00:48:31.139Z,67.46
2018-04-28T00:49:31.207Z,66.70
2018-04-28T00:50:31.259Z,67.55
2018-04-28T00:51:31.336Z,67.08
2018-04-28T00:52:31.407Z,67.65
2018-04-28T00:53:31.455Z,67.55
2018-04-28T00:54:31.531Z,67.75
2018-04-28T00:55:31.591Z,67.46
2018-04-28T00:56:31.651Z,67.27
2018-04-28T00:57:31.731Z,66.99
2018-04-28T00:58:31.788Z,67.18
2018-04-28T00:59:31.843Z,67.46
2018-04-28T01:00:31.903Z,67.46
2018-04-28T01:01:31.979Z,67.55
2018-04-28T01:02:32.055Z,67.36
2018-04-28T01:03:32.104Z,67.08
2018-04-28T01:04:32.163Z,67.46
2018-04-28T01:05:32.236Z,67.27
2018-04-28T01:06:32.292Z,67.36
2018-04-28T01:07:32.516Z,67.84
2018-04-28T01:08:32.420Z,67.75
2018-04-28T01:09:32.488Z,67.71
2018-04-28T01:10:32.547Z,68.61
2018-04-28T01:11:32.616Z,68.99
2018-04-28T01:12:32.684Z,69.05
2018-04-28T01:13:32.748Z,70.01
2018-04-28T01:14:32.808Z,70.10
2018-04-28T01:15:32.871Z,71.06
2018-04-28T01:16:32.936Z,69.53
2018-04-28T01:17:33.013Z,71.72
2018-04-28T01:18:33.072Z,70.39
2018-04-28T01:19:33.128Z,70.29
2018-04-28T01:20:33.200Z,71.53
2018-04-28T01:21:33.258Z,71.15
2018-04-28T01:22:33.432Z,70.58
2018-04-28T01:23:33.384Z,70.20
2018-04-28T01:24:33.448Z,70.29
2018-04-28T01:25:33.513Z,69.91
2018-04-28T01:26:33.593Z,69.15
2018-04-28T01:27:33.676Z,69.72
2018-04-28T01:28:33.769Z,69.53
2018-04-28T01:29:33.772Z,68.96
2018-04-28T01:30:33.845Z,68.76
2018-04-28T01:31:33.909Z,69.82
2018-04-28T01:32:33.981Z,68.57
2018-04-28T01:33:34.040Z,68.29
2018-04-28T01:34:34.093Z,68.67
2018-04-28T01:35:34.157Z,68.19
2018-04-28T01:36:34.225Z,68.00
2018-04-28T01:37:34.301Z,67.52
2018-04-28T01:38:34.349Z,67.33
2018-04-28T01:39:34.417Z,67.24
2018-04-28T01:40:34.478Z,68.19
2018-04-28T01:41:34.541Z,67.62
2018-04-28T01:42:34.649Z,67.62
2018-04-28T01:43:34.677Z,68.10
2018-04-28T01:44:34.738Z,67.43
2018-04-28T01:45:34.797Z,68.10
2018-04-28T01:46:34.862Z,68.57
2018-04-28T01:47:34.965Z,68.48
2018-04-28T01:48:34.998Z,67.62
2018-04-28T01:49:35.058Z,67.33
2018-04-28T01:50:35.121Z,67.62
2018-04-28T01:51:35.185Z,67.81
2018-04-28T01:52:35.249Z,68.57
2018-04-28T01:53:35.477Z,68.48
2018-04-28T01:54:35.379Z,68.48
2018-04-28T01:55:35.441Z,68.96
2018-04-28T01:56:35.506Z,69.34
2018-04-28T01:57:35.570Z,69.05
2018-04-28T01:58:35.646Z,70.10
2018-04-28T01:59:35.702Z,69.72
2018-04-28T02:00:35.763Z,68.96
2018-04-28T02:01:35.827Z,68.86
2018-04-28T02:02:35.890Z,69.62
2018-04-28T02:03:35.962Z,68.67
2018-04-28T02:04:36.034Z,68.96
2018-04-28T02:05:36.083Z,69.15
2018-04-28T02:06:36.146Z,68.57
2018-04-28T02:07:36.214Z,68.19
2018-04-28T02:08:36.291Z,68.86
2018-04-28T02:09:36.347Z,68.96
2018-04-28T02:10:36.403Z,68.29
2018-04-28T02:11:36.471Z,68.19
2018-04-28T02:12:36.535Z,68.00
2018-04-28T02:13:36.608Z,68.96
2018-04-28T02:14:36.667Z,68.96
2018-04-28T02:15:36.730Z,69.15
2018-04-28T02:16:36.791Z,68.76
2018-04-28T02:17:36.855Z,68.92
2018-04-28T02:18:36.922Z,69.02
2018-04-28T02:19:36.987Z,69.05
2018-04-28T02:20:37.048Z,69.21
2018-04-28T02:21:37.111Z,69.40
2018-04-28T02:22:37.175Z,69.21
2018-04-28T02:23:37.251Z,69.68
2018-04-28T02:24:37.303Z,69.97
2018-04-28T02:25:37.367Z,69.31
2018-04-28T02:26:37.431Z,69.49
2018-04-28T02:27:37.499Z,69.87
2018-04-28T02:28:37.568Z,69.59
2018-04-28T02:29:37.631Z,69.68
2018-04-28T02:30:37.687Z,69.68
2018-04-28T02:31:37.752Z,70.54
2018-04-28T02:32:37.816Z,70.26
2018-04-28T02:33:37.884Z,69.97
2018-04-28T02:34:38.076Z,70.16
2018-04-28T02:35:38.004Z,69.68
2018-04-28T02:36:38.072Z,69.49
2018-04-28T02:37:38.136Z,70.07
2018-04-28T02:38:38.312Z,69.84
2018-04-28T02:39:38.263Z,70.45
2018-04-28T02:40:38.331Z,70.73
2018-04-28T02:41:38.392Z,70.79
2018-04-28T02:42:38.456Z,72.13
2018-04-28T02:43:38.528Z,72.23
2018-04-28T02:44:38.595Z,71.37
2018-04-28T02:45:38.648Z,71.37
2018-04-28T02:46:38.712Z,72.03
2018-04-28T02:47:38.777Z,72.32
2018-04-28T02:48:38.849Z,71.66
2018-04-28T02:49:38.909Z,71.08
2018-04-28T02:50:38.968Z,71.66
2018-04-28T02:51:39.037Z,71.27
2018-04-28T02:52:39.102Z,71.08
2018-04-28T02:53:39.172Z,71.27
2018-04-28T02:54:39.232Z,71.75
2018-04-28T02:55:39.289Z,71.37
2018-04-28T02:56:39.356Z,71.66
2018-04-28T02:57:39.417Z,72.42
2018-04-28T02:58:39.491Z,71.75
2018-04-28T02:59:39.553Z,71.37
2018-04-28T03:00:39.609Z,72.42
2018-04-28T03:01:39.675Z,71.94
2018-04-28T03:02:39.741Z,72.13
2018-04-28T03:03:39.808Z,71.75
2018-04-28T03:04:39.873Z,71.56
2018-04-28T03:05:39.929Z,71.75
2018-04-28T03:06:39.993Z,71.46
2018-04-28T03:07:40.058Z,71.66
2018-04-28T03:08:40.279Z,72.23
2018-04-28T03:09:40.185Z,72.32
2018-04-28T03:10:40.249Z,71.94
2018-04-28T03:11:40.314Z,72.42
2018-04-28T03:12:40.378Z,72.71
2018-04-28T03:13:40.455Z,72.61
2018-04-28T03:14:40.510Z,71.75
2018-04-28T03:15:40.566Z,71.66
2018-04-28T03:16:40.635Z,71.66
2018-04-28T03:17:40.697Z,71.66
2018-04-28T03:18:40.765Z,71.84
2018-04-28T03:19:40.829Z,71.37
2018-04-28T03:20:40.886Z,71.84
2018-04-28T03:21:40.957Z,71.84
2018-04-28T03:22:41.014Z,71.37
2018-04-28T03:23:41.100Z,71.66
2018-04-28T03:24:41.146Z,71.56
2018-04-28T03:25:41.206Z,71.56
2018-04-28T03:26:41.270Z,71.84
2018-04-28T03:27:41.334Z,72.71
2018-04-28T03:28:41.402Z,72.13
2018-04-28T03:29:41.470Z,72.71
2018-04-28T03:30:41.526Z,72.67
2018-04-28T03:31:41.590Z,73.62
2018-04-28T03:32:41.654Z,73.52
2018-04-28T03:33:41.722Z,72.57
2018-04-28T03:34:41.786Z,73.37
2018-04-28T03:35:41.842Z,73.05
2018-04-28T03:36:41.911Z,73.52
2018-04-28T03:37:41.970Z,73.94
2018-04-28T03:38:42.042Z,73.14
2018-04-28T03:39:42.106Z,73.08
2018-04-28T03:40:42.163Z,72.76
2018-04-28T03:41:42.226Z,72.61
2018-04-28T03:42:42.290Z,72.99
2018-04-28T03:43:42.502Z,73.14
2018-04-28T03:44:42.419Z,73.18
2018-04-28T03:45:42.482Z,73.66
2018-04-28T03:46:42.542Z,73.08
2018-04-28T03:47:42.610Z,73.56
2018-04-28T03:48:42.688Z,73.37
2018-04-28T03:49:42.743Z,72.80
2018-04-28T03:50:42.798Z,73.37
2018-04-28T03:51:42.862Z,72.71
2018-04-28T03:52:42.927Z,72.51
2018-04-28T03:53:42.998Z,72.13
2018-04-28T03:54:43.062Z,71.94
2018-04-28T03:55:43.118Z,71.75
2018-04-28T03:56:43.182Z,71.37
2018-04-28T03:57:43.274Z,71.75
2018-04-28T03:58:43.476Z,70.79
2018-04-28T03:59:43.378Z,70.32
2018-04-28T04:00:43.441Z,70.79
2018-04-28T04:01:43.498Z,71.08
2018-04-28T04:02:43.567Z,70.98
2018-04-28T04:03:43.634Z,71.08
2018-04-28T04:04:43.704Z,69.78
2018-04-28T04:05:43.755Z,69.78
2018-04-28T04:06:43.819Z,69.46
2018-04-28T04:07:43.882Z,69.49
2018-04-28T04:08:43.954Z,69.59
2018-04-28T04:09:44.020Z,69.02
2018-04-28T04:10:44.079Z,68.35
2018-04-28T04:11:44.138Z,68.35
2018-04-28T04:12:44.199Z,68.63
2018-04-28T04:13:44.282Z,68.16
2018-04-28T04:14:44.327Z,68.16
2018-04-28T04:15:44.391Z,67.77
2018-04-28T04:16:44.455Z,67.77
2018-04-28T04:17:44.523Z,67.87
2018-04-28T04:18:44.591Z,68.16
2018-04-28T04:19:44.659Z,67.58
2018-04-28T04:20:44.711Z,68.44
2018-04-28T04:21:44.775Z,68.16
2018-04-28T04:22:44.840Z,67.68
2018-04-28T04:23:44.907Z,67.68
2018-04-28T04:24:44.971Z,67.97
2018-04-28T04:25:45.027Z,68.35
2018-04-28T04:26:45.095Z,69.49
2018-04-28T04:27:45.155Z,69.78
2018-04-28T04:28:45.232Z,69.11
2018-04-28T04:29:45.284Z,69.02
2018-04-28T04:30:45.347Z,69.02
2018-04-28T04:31:45.411Z,70.16
2018-04-28T04:32:45.476Z,69.31
2018-04-28T04:33:45.555Z,68.73
2018-04-28T04:34:45.611Z,68.92
2018-04-28T04:35:45.673Z,69.02
2018-04-28T04:36:45.732Z,68.54
2018-04-28T04:37:45.876Z,68.92
2018-04-28T04:38:45.867Z,69.49
2018-04-28T04:39:45.928Z,69.68
2018-04-28T04:40:45.988Z,69.59
2018-04-28T04:41:46.052Z,69.97
2018-04-28T04:42:46.116Z,69.11
2018-04-28T04:43:46.288Z,68.73
2018-04-28T04:44:46.584Z,68.63
2018-04-28T04:45:46.308Z,68.82
2018-04-28T04:46:46.368Z,69.59
2018-04-28T04:47:46.436Z,68.54
2018-04-28T04:48:46.504Z,69.11
2018-04-28T04:49:46.568Z,68.96
2018-04-28T04:50:46.628Z,69.11
2018-04-28T04:51:46.689Z,69.02
2018-04-28T04:52:46.752Z,69.05
2018-04-28T04:53:46.825Z,68.82
2018-04-28T04:54:46.891Z,68.19
2018-04-28T04:55:46.945Z,68.29
2018-04-28T04:56:47.008Z,68.67
2018-04-28T04:57:47.073Z,68.19
2018-04-28T04:58:47.305Z,68.67
2018-04-28T04:59:47.202Z,67.62
2018-04-28T05:00:47.268Z,67.62
2018-04-28T05:01:47.329Z,68.19
2018-04-28T05:02:47.397Z,67.52
2018-04-28T05:03:47.469Z,67.62
2018-04-28T05:04:47.533Z,67.52
2018-04-28T05:05:47.585Z,67.71
2018-04-28T05:06:47.668Z,67.43
2018-04-28T05:07:47.713Z,67.05
2018-04-28T05:08:47.788Z,67.18
2018-04-28T05:09:49.825Z,66.99
2018-04-28T05:10:47.905Z,66.76
2018-04-28T05:11:47.974Z,66.99
2018-04-28T05:12:48.058Z,66.70
2018-04-28T05:13:48.101Z,66.66
2018-04-28T05:14:48.319Z,66.41
2018-04-28T05:15:48.249Z,67.08
2018-04-28T05:16:48.293Z,66.99
2018-04-28T05:17:48.358Z,67.75
2018-04-28T05:18:48.429Z,67.27
2018-04-28T05:19:48.494Z,67.55
2018-04-28T05:20:48.569Z,66.79
2018-04-28T05:21:48.614Z,66.70
2018-04-28T05:22:48.698Z,67.46
2018-04-28T05:23:48.754Z,67.27
2018-04-28T05:24:48.826Z,66.70
2018-04-28T05:25:48.882Z,67.65
2018-04-28T05:26:48.942Z,66.79
2018-04-28T05:27:49.001Z,66.99
2018-04-28T05:28:49.066Z,66.60
2018-04-28T05:29:49.150Z,67.55
2018-04-28T05:30:49.198Z,67.18
2018-04-28T05:31:49.258Z,66.99
2018-04-28T05:32:49.322Z,67.46
2018-04-28T05:33:49.391Z,67.75
2018-04-28T05:34:49.461Z,66.79
2018-04-28T05:35:49.522Z,66.70
2018-04-28T05:36:49.579Z,66.60
2018-04-28T05:37:49.643Z,66.60
2018-04-28T05:38:49.707Z,66.41
2018-04-28T05:39:49.774Z,67.75
2018-04-28T05:40:49.847Z,67.27
2018-04-28T05:41:49.902Z,67.27
2018-04-28T05:42:49.971Z,66.99
2018-04-28T05:43:50.035Z,67.18
2018-04-28T05:44:50.251Z,66.70
2018-04-28T05:45:50.159Z,66.70
2018-04-28T05:46:50.223Z,66.50
2018-04-28T05:47:50.287Z,66.41
2018-04-28T05:48:50.355Z,66.60
2018-04-28T05:49:50.431Z,66.70
2018-04-28T05:50:50.495Z,67.18
2018-04-28T05:51:50.543Z,66.89
2018-04-28T05:52:50.620Z,67.27
2018-04-28T05:53:50.675Z,67.18
2018-04-28T05:54:50.967Z,67.55
2018-04-28T05:55:50.815Z,67.36
2018-04-28T05:56:50.872Z,67.30
2018-04-28T05:57:50.990Z,67.21
2018-04-28T05:58:51.000Z,66.73
2018-04-28T05:59:51.120Z,66.16
2018-04-28T06:00:51.140Z,65.58
2018-04-28T06:01:51.196Z,65.58
2018-04-28T06:02:51.259Z,65.87
2018-04-28T06:03:51.324Z,66.06
2018-04-28T06:04:51.401Z,65.68
2018-04-28T06:05:51.460Z,64.75
2018-04-28T06:06:51.516Z,65.97
2018-04-28T06:07:51.584Z,64.43
2018-04-28T06:08:51.660Z,64.56
2018-04-28T06:09:51.721Z,64.56
2018-04-28T06:10:51.785Z,64.09
2018-04-28T06:11:51.836Z,63.51
2018-04-28T06:12:51.908Z,63.80
2018-04-28T06:13:51.972Z,63.89
2018-04-28T06:14:52.057Z,64.47
2018-04-28T06:15:52.108Z,63.73
2018-04-28T06:16:52.173Z,63.80
2018-04-28T06:17:52.233Z,63.32
2018-04-28T06:18:52.296Z,62.65
2018-04-28T06:19:52.579Z,62.94
2018-04-28T06:20:52.433Z,62.55
2018-04-28T06:21:52.493Z,63.03
2018-04-28T06:22:52.557Z,63.42
2018-04-28T06:23:52.622Z,63.13
2018-04-28T06:24:52.705Z,63.13
2018-04-28T06:25:52.811Z,62.55
2018-04-28T06:26:52.869Z,63.03
2018-04-28T06:27:52.988Z,62.55
2018-04-28T06:28:53.005Z,62.65
2018-04-28T06:29:53.037Z,62.55
2018-04-28T06:30:53.342Z,62.37
2018-04-28T06:31:53.153Z,62.74
2018-04-28T06:32:53.453Z,62.65
2018-04-28T06:33:53.296Z,63.03
2018-04-28T06:34:53.669Z,62.27
2018-04-28T06:35:53.514Z,62.65
2018-04-28T06:36:53.477Z,63.13
2018-04-28T06:37:53.624Z,62.40
2018-04-28T06:38:53.673Z,62.20
2018-04-28T06:39:53.746Z,61.91
2018-04-28T06:40:54.189Z,61.34
2018-04-28T06:41:53.889Z,61.79
2018-04-28T06:42:53.865Z,62.68
2018-04-28T06:43:54.049Z,62.20
2018-04-28T06:44:54.093Z,61.72
2018-04-28T06:45:55.334Z,61.05
2018-04-28T06:46:54.211Z,61.72
2018-04-28T06:47:54.225Z,61.63
2018-04-28T06:48:54.261Z,61.63
2018-04-28T06:49:54.485Z,61.63
2018-04-28T06:50:54.438Z,61.44
2018-04-28T06:51:54.554Z,61.44
2018-04-28T06:52:54.521Z,61.44
2018-04-28T06:53:54.653Z,61.63
2018-04-28T06:54:54.661Z,61.05
2018-04-28T06:55:54.789Z,60.96
2018-04-28T06:56:54.874Z,61.34
2018-04-28T06:57:54.850Z,60.77
2018-04-28T06:58:54.902Z,61.25
2018-04-28T06:59:54.986Z,61.34
2018-04-28T07:00:55.046Z,61.15
2018-04-28T07:01:55.098Z,61.72
2018-04-28T07:02:55.173Z,62.30
2018-04-28T07:03:55.258Z,61.15
2018-04-28T07:04:55.322Z,61.63
2018-04-28T07:05:55.726Z,61.44
2018-04-28T07:06:55.434Z,61.25
2018-04-28T07:07:55.494Z,61.05
2018-04-28T07:08:55.602Z,62.68
2018-04-28T07:09:55.635Z,62.87
2018-04-28T07:10:55.718Z,61.44
2018-04-28T07:11:55.770Z,61.63
2018-04-28T07:12:55.823Z,62.40
2018-04-28T07:13:55.882Z,62.68
2018-04-28T07:14:55.950Z,62.49
2018-04-28T07:15:56.028Z,62.49
2018-04-28T07:16:56.391Z,62.59
2018-04-28T07:17:56.159Z,62.30
2018-04-28T07:18:56.227Z,61.25
2018-04-28T07:19:56.280Z,61.63
2018-04-28T07:20:56.430Z,62.59
2018-04-28T07:21:56.663Z,62.77
2018-04-28T07:22:56.915Z,63.06
2018-04-28T07:23:56.559Z,62.77
2018-04-28T07:24:56.611Z,63.16
2018-04-28T07:25:56.674Z,63.73
2018-04-28T07:26:56.794Z,63.26
2018-04-28T07:27:56.840Z,63.26
2018-04-28T07:28:56.874Z,62.59
2018-04-28T07:29:56.959Z,61.25
2018-04-28T07:30:57.003Z,61.63
2018-04-28T07:31:57.231Z,61.72
2018-04-28T07:32:57.215Z,61.66
2018-04-28T07:33:57.851Z,61.66
2018-04-28T07:34:57.327Z,61.57
2018-04-28T07:35:57.452Z,62.71
2018-04-28T07:36:57.427Z,61.28
2018-04-28T07:37:57.488Z,61.66
2018-04-28T07:38:57.543Z,60.89
2018-04-28T07:39:57.600Z,60.13
2018-04-28T07:40:57.664Z,60.89
2018-04-28T07:41:57.744Z,60.99
2018-04-28T07:42:57.804Z,61.08
2018-04-28T07:43:57.848Z,60.89
2018-04-28T07:44:57.936Z,61.66
2018-04-28T07:45:57.988Z,61.08
2018-04-28T07:46:58.096Z,61.18
2018-04-28T07:47:58.332Z,61.18
2018-04-28T07:48:58.356Z,61.18
2018-04-28T07:49:58.248Z,60.41
2018-04-28T07:50:58.661Z,61.08
2018-04-28T07:51:58.393Z,60.89
2018-04-28T07:52:58.484Z,61.57
2018-04-28T07:53:58.618Z,61.21
2018-04-28T07:54:58.669Z,60.64
2018-04-28T07:55:58.711Z,59.11
2018-04-28T07:56:58.896Z,59.97
2018-04-28T07:57:59.589Z,59.33
2018-04-28T07:58:58.880Z,59.42
2018-04-28T07:59:58.941Z,58.56
2018-04-28T08:00:59.059Z,58.59
2018-04-28T08:01:59.061Z,57.92
2018-04-28T08:02:59.330Z,56.29
2018-04-28T08:03:59.861Z,56.29
2018-04-28T08:04:59.441Z,56.00
2018-04-28T08:05:59.353Z,56.60
2018-04-28T08:06:59.455Z,56.89
2018-04-28T08:08:01.042Z,55.74
2018-04-28T08:08:59.545Z,56.02
2018-04-28T08:09:59.689Z,56.51
2018-04-28T08:10:59.673Z,56.02
2018-04-28T08:11:59.702Z,55.96
2018-04-28T08:12:59.778Z,55.47
2018-04-28T08:13:59.965Z,56.24
2018-04-28T08:14:59.901Z,56.82
2018-04-28T08:15:59.970Z,55.32
2018-04-28T08:17:00.042Z,56.18
2018-04-28T08:18:00.110Z,54.93
2018-04-28T08:19:00.186Z,54.13
2018-04-28T08:20:00.241Z,54.52
2018-04-28T08:21:00.313Z,54.71
2018-04-28T08:22:00.391Z,55.77
2018-04-28T08:23:00.443Z,54.13
2018-04-28T08:24:00.522Z,54.80
2018-04-28T08:25:00.600Z,55.00
2018-04-28T08:26:00.645Z,55.19
2018-04-28T08:27:00.721Z,54.67
2018-04-28T08:28:00.782Z,51.26
2018-04-28T08:29:00.868Z,51.55
2018-04-28T08:30:00.954Z,50.40
2018-04-28T08:31:00.990Z,50.81
2018-04-28T08:32:01.059Z,49.72
2018-04-28T08:33:01.142Z,49.94
2018-04-28T08:34:01.302Z,48.97
2018-04-28T08:35:01.262Z,49.17
2018-04-28T08:36:01.334Z,48.97
2018-04-28T08:37:01.409Z,48.40
2018-04-28T08:38:01.490Z,47.92
2018-04-28T08:39:01.550Z,48.88
2018-04-28T08:40:01.626Z,47.65
2018-04-28T08:41:01.687Z,47.82
2018-04-28T08:42:01.750Z,47.82
2018-04-28T08:43:01.823Z,47.92
2018-04-28T08:44:01.911Z,48.11
2018-04-28T08:45:01.968Z,48.21
2018-04-28T08:46:02.030Z,48.13
2018-04-28T08:47:02.106Z,48.23
2018-04-28T08:48:02.175Z,47.75
2018-04-28T08:49:02.277Z,46.55
2018-04-28T08:50:02.623Z,45.48
2018-04-28T08:51:02.385Z,45.39
2018-04-28T08:52:02.456Z,45.46
2018-04-28T08:53:02.524Z,46.52
2018-04-28T08:54:02.595Z,45.27
2018-04-28T08:55:02.679Z,45.94
2018-04-28T08:56:02.755Z,46.40
2018-04-28T08:57:02.807Z,46.86
2018-04-28T08:58:02.875Z,47.92
2018-04-28T08:59:02.958Z,48.40
2018-04-28T09:00:03.027Z,47.85
2018-04-28T09:01:03.115Z,46.95
2018-04-28T09:02:03.163Z,47.92
2018-04-28T09:03:03.231Z,47.85
2018-04-28T09:04:03.299Z,47.34
2018-04-28T09:05:03.435Z,47.72
2018-04-28T09:06:03.435Z,48.30
2018-04-28T09:07:03.513Z,49.17
2018-04-28T09:08:03.579Z,49.19
2018-04-28T09:09:03.659Z,48.03
2018-04-28T09:10:03.802Z,47.85
2018-04-28T09:11:03.795Z,47.08
2018-04-28T09:12:03.860Z,47.82
2018-04-28T09:13:03.990Z,48.79
2018-04-28T09:14:04.028Z,48.18
2018-04-28T09:15:04.192Z,48.59
2018-04-28T09:16:04.323Z,48.97
2018-04-28T09:17:04.319Z,48.85
2018-04-28T09:18:04.288Z,49.05
2018-04-28T09:19:04.444Z,50.49
2018-04-28T09:20:04.588Z,49.17
2018-04-28T09:21:04.572Z,49.05
2018-04-28T09:22:04.568Z,49.24
2018-04-28T09:23:04.628Z,49.41
2018-04-28T09:24:04.712Z,50.15
2018-04-28T09:25:04.780Z,50.63
2018-04-28T09:26:04.897Z,50.30
2018-04-28T09:27:04.912Z,50.78
2018-04-28T09:28:04.983Z,49.53
2018-04-28T09:29:05.052Z,49.36
2018-04-28T09:30:05.136Z,48.97
2018-04-28T09:31:05.193Z,48.38
2018-04-28T09:32:05.264Z,49.24
2018-04-28T09:33:05.428Z,49.82
2018-04-28T09:34:05.485Z,49.84
2018-04-28T09:35:05.476Z,49.84
2018-04-28T09:36:05.544Z,49.15
2018-04-28T09:37:05.616Z,49.24
2018-04-28T09:38:05.676Z,49.24
2018-04-28T09:39:05.744Z,48.97
2018-04-28T09:40:05.821Z,49.53
2018-04-28T09:41:05.912Z,49.33
2018-04-28T09:42:05.952Z,50.59
2018-04-28T09:43:06.021Z,49.24
2018-04-28T09:44:06.096Z,49.22
2018-04-28T09:45:06.425Z,49.84
2018-04-28T09:46:06.229Z,48.16
2018-04-28T09:47:06.301Z,45.79
2018-04-28T09:48:06.369Z,44.83
2018-04-28T09:49:06.441Z,44.73
2018-04-28T09:50:06.513Z,43.85
2018-04-28T09:51:06.585Z,44.90
2018-04-28T09:52:06.645Z,46.25
2018-04-28T09:53:06.717Z,46.40
2018-04-28T09:54:06.786Z,46.15
2018-04-28T09:55:06.868Z,46.15
2018-04-28T09:56:06.940Z,45.84
2018-04-28T09:57:06.997Z,46.62
2018-04-28T09:58:07.067Z,46.50
2018-04-28T09:59:07.137Z,46.88
2018-04-28T10:00:07.222Z,46.11
2018-04-28T10:01:07.277Z,46.77
2018-04-28T10:02:07.345Z,47.70
2018-04-28T10:03:07.413Z,47.89
2018-04-28T10:04:07.486Z,47.80
2018-04-28T10:05:07.561Z,48.08
2018-04-28T10:06:07.629Z,48.07
2018-04-28T10:07:07.693Z,49.02
2018-04-28T10:08:07.766Z,49.29
2018-04-28T10:09:07.834Z,50.13
2018-04-28T10:10:07.917Z,50.51
2018-04-28T10:11:07.978Z,51.09
2018-04-28T10:12:08.042Z,51.28
2018-04-28T10:13:08.110Z,51.18
2018-04-28T10:14:08.178Z,51.37
2018-04-28T10:15:08.270Z,51.09
2018-04-28T10:16:08.314Z,51.37
2018-04-28T10:17:08.389Z,51.37
2018-04-28T10:18:08.454Z,51.57
2018-04-28T10:19:08.523Z,52.72
2018-04-28T10:20:08.636Z,53.30
2018-04-28T10:21:08.667Z,53.20
2018-04-28T10:22:08.726Z,53.11
2018-04-28T10:23:08.794Z,53.20
2018-04-28T10:24:08.870Z,52.24
2018-04-28T10:25:08.938Z,53.97
2018-04-28T10:26:09.007Z,52.34
2018-04-28T10:27:09.071Z,52.43
2018-04-28T10:28:09.143Z,53.01
2018-04-28T10:29:09.206Z,51.50
2018-04-28T10:30:09.275Z,50.54
2018-04-28T10:31:09.499Z,50.54
2018-04-28T10:32:09.411Z,51.31
2018-04-28T10:33:09.478Z,52.17
2018-04-28T10:34:09.547Z,51.95
2018-04-28T10:35:09.617Z,53.39
2018-04-28T10:36:09.691Z,53.68
2018-04-28T10:37:09.759Z,54.64
2018-04-28T10:38:09.819Z,55.32
2018-04-28T10:39:09.887Z,54.93
2018-04-28T10:40:09.960Z,54.83
2018-04-28T10:41:10.031Z,55.19
2018-04-28T10:42:10.099Z,55.10
2018-04-28T10:43:10.163Z,55.10
2018-04-28T10:44:10.239Z,54.88
2018-04-28T10:45:10.299Z,55.00
2018-04-28T10:46:10.371Z,55.38
2018-04-28T10:47:10.439Z,55.10
2018-04-28T10:48:10.503Z,55.29
2018-04-28T10:49:10.572Z,55.29
2018-04-28T10:50:10.639Z,55.86
2018-04-28T10:51:10.715Z,54.90
2018-04-28T10:52:10.779Z,54.04
2018-04-28T10:53:10.843Z,54.04
2018-04-28T10:54:10.908Z,54.13
2018-04-28T10:55:10.976Z,54.80
2018-04-28T10:56:11.059Z,53.75
2018-04-28T10:57:11.124Z,53.75
2018-04-28T10:58:11.180Z,53.17
2018-04-28T10:59:11.247Z,53.27
2018-04-28T11:00:11.319Z,53.17
2018-04-28T11:01:11.540Z,53.46
2018-04-28T11:02:11.452Z,52.62
2018-04-28T11:03:11.520Z,52.14
2018-04-28T11:04:11.588Z,53.30
2018-04-28T11:05:11.656Z,52.14
2018-04-28T11:06:11.765Z,52.65
2018-04-28T11:07:11.796Z,52.14
2018-04-28T11:08:11.857Z,51.86
2018-04-28T11:09:11.928Z,52.53
2018-04-28T11:10:11.993Z,53.30
2018-04-28T11:11:12.069Z,53.11
2018-04-28T11:12:12.139Z,52.53
2018-04-28T11:13:12.242Z,53.13
2018-04-28T11:14:12.267Z,51.50
2018-04-28T11:15:12.336Z,52.17
2018-04-28T11:16:12.405Z,51.50
2018-04-28T11:17:12.477Z,51.59
2018-04-28T11:18:12.533Z,52.46
2018-04-28T11:19:12.609Z,53.03
2018-04-28T11:20:12.673Z,52.84
2018-04-28T11:21:12.750Z,52.87
2018-04-28T11:22:12.815Z,52.10
2018-04-28T11:23:12.874Z,52.32
2018-04-28T11:24:12.946Z,51.76
2018-04-28T11:25:13.010Z,50.45
2018-04-28T11:26:13.232Z,49.99
2018-04-28T11:27:13.145Z,49.12
2018-04-28T11:28:13.213Z,48.28
2018-04-28T11:29:13.281Z,47.67
2018-04-28T11:30:13.349Z,47.99
2018-04-28T11:31:13.425Z,46.64
2018-04-28T11:32:13.493Z,47.51
2018-04-28T11:33:13.558Z,47.58
2018-04-28T11:34:13.626Z,46.81
2018-04-28T11:35:13.694Z,47.56
2018-04-28T11:36:13.769Z,46.88
2018-04-28T11:37:13.838Z,46.50
2018-04-28T11:38:13.920Z,46.78
2018-04-28T11:39:13.970Z,45.83
2018-04-28T11:40:14.038Z,46.52
2018-04-28T11:41:14.130Z,46.81
2018-04-28T11:42:14.174Z,45.34
2018-04-28T11:43:14.242Z,46.04
2018-04-28T11:44:14.321Z,46.42
2018-04-28T11:45:14.381Z,45.15
2018-04-28T11:46:14.458Z,47.65
2018-04-28T11:47:14.525Z,47.75
2018-04-28T11:48:14.590Z,47.63
2018-04-28T11:49:14.654Z,47.92
2018-04-28T11:50:14.726Z,47.34
2018-04-28T11:51:14.802Z,47.72
2018-04-28T11:52:14.870Z,47.05
2018-04-28T11:53:14.938Z,46.84
2018-04-28T11:54:15.012Z,47.80
2018-04-28T11:55:15.071Z,47.51
2018-04-28T11:56:15.295Z,48.88
2018-04-28T11:57:15.215Z,48.33
2018-04-28T11:58:15.279Z,47.46
2018-04-28T11:59:15.420Z,46.50
2018-04-28T12:00:15.418Z,47.94
2018-04-28T12:01:15.507Z,48.43
2018-04-28T12:02:15.562Z,46.78
2018-04-28T12:03:15.622Z,46.59
2018-04-28T12:04:15.695Z,46.86
2018-04-28T12:05:15.840Z,46.84
2018-04-28T12:06:15.839Z,48.16
2018-04-28T12:07:15.907Z,48.16
2018-04-28T12:08:15.973Z,47.77
2018-04-28T12:09:16.040Z,48.38
2018-04-28T12:10:16.107Z,49.53
2018-04-28T12:11:16.199Z,47.89
2018-04-28T12:12:16.247Z,46.84
2018-04-28T12:13:16.314Z,47.70
2018-04-28T12:14:16.383Z,47.41
2018-04-28T12:15:16.455Z,47.80
2018-04-28T12:16:16.530Z,47.99
2018-04-28T12:17:16.623Z,46.84
2018-04-28T12:18:16.661Z,46.86
2018-04-28T12:19:16.727Z,46.47
2018-04-28T12:20:16.795Z,48.25
2018-04-28T12:21:16.871Z,45.75
2018-04-28T12:22:16.940Z,45.84
2018-04-28T12:23:17.007Z,44.31
2018-04-28T12:24:17.076Z,44.49
2018-04-28T12:25:17.147Z,42.74
2018-04-28T12:26:17.487Z,42.93
2018-04-28T12:27:17.279Z,42.55
2018-04-28T12:28:17.347Z,42.93
2018-04-28T12:29:17.437Z,43.90
2018-04-28T12:30:17.488Z,43.61
2018-04-28T12:31:17.559Z,43.97
2018-04-28T12:32:18.024Z,43.97
2018-04-28T12:33:19.467Z,43.88
2018-04-28T12:34:17.760Z,43.78
2018-04-28T12:35:17.837Z,43.85
2018-04-28T12:36:17.899Z,44.53
2018-04-28T12:37:17.996Z,45.49
2018-04-28T12:38:18.036Z,45.10
2018-04-28T12:39:18.104Z,46.64
2018-04-28T12:40:18.175Z,45.59
2018-04-28T12:41:18.248Z,46.55
2018-04-28T12:42:18.416Z,47.31
2018-04-28T12:43:18.379Z,49.07
2018-04-28T12:44:18.716Z,47.72
2018-04-28T12:45:18.524Z,46.28
2018-04-28T12:46:18.584Z,46.09
2018-04-28T12:47:18.659Z,46.57
2018-04-28T12:48:18.735Z,46.47
2018-04-28T12:49:18.792Z,45.80
2018-04-28T12:50:18.860Z,45.61
2018-04-28T12:51:18.928Z,46.38
2018-04-28T12:52:19.000Z,46.57
2018-04-28T12:53:19.073Z,44.93